sensor_id;sensor_type;location;lat;lon;timestamp;P1;durP1;ratioP1;P2;durP2;ratioP2
19364;SDS011;9818;48.382;10.850;2023-08-21T00:00:05;8.43;;;7.63;;
19364;SDS011;9818;48.382;10.850;2023-08-21T00:02:39;7.88;;;7.05;;
19364;SDS011;9818;48.382;10.850;2023-08-21T00:05:08;7.47;;;6.82;;
19364;SDS011;9818;48.382;10.850;2023-08-21T00:07:37;7.50;;;6.80;;
19364;SDS011;9818;48.382;10.850;2023-08-21T00:10:06;9.15;;;6.80;;
19364;SDS011;9818;48.382;10.850;2023-08-21T00:12:37;10.02;;;7.03;;
19364;SDS011;9818;48.382;10.850;2023-08-21T00:15:07;10.10;;;7.03;;
19364;SDS011;9818;48.382;10.850;2023-08-21T00:17:40;9.82;;;7.55;;
19364;SDS011;9818;48.382;10.850;2023-08-21T00:20:09;8.32;;;7.28;;
19364;SDS011;9818;48.382;10.850;2023-08-21T00:22:39;9.20;;;7.30;;
19364;SDS011;9818;48.382;10.850;2023-08-21T00:25:07;7.37;;;6.67;;
19364;SDS011;9818;48.382;10.850;2023-08-21T00:27:36;7.78;;;7.00;;
19364;SDS011;9818;48.382;10.850;2023-08-21T00:30:06;8.32;;;7.40;;
19364;SDS011;9818;48.382;10.850;2023-08-21T00:32:35;8.70;;;7.82;;
19364;SDS011;9818;48.382;10.850;2023-08-21T00:35:07;9.23;;;7.70;;
19364;SDS011;9818;48.382;10.850;2023-08-21T00:37:36;9.25;;;7.63;;
19364;SDS011;9818;48.382;10.850;2023-08-21T00:40:06;9.10;;;7.57;;
19364;SDS011;9818;48.382;10.850;2023-08-21T00:42:35;8.93;;;7.87;;
19364;SDS011;9818;48.382;10.850;2023-08-21T00:45:04;8.55;;;7.22;;
19364;SDS011;9818;48.382;10.850;2023-08-21T00:47:34;8.03;;;7.00;;
19364;SDS011;9818;48.382;10.850;2023-08-21T00:50:03;8.00;;;7.20;;
19364;SDS011;9818;48.382;10.850;2023-08-21T00:52:38;8.07;;;7.20;;
19364;SDS011;9818;48.382;10.850;2023-08-21T00:55:08;8.17;;;7.37;;
19364;SDS011;9818;48.382;10.850;2023-08-21T00:57:38;8.10;;;7.20;;
19364;SDS011;9818;48.382;10.850;2023-08-21T01:00:07;8.60;;;7.70;;
19364;SDS011;9818;48.382;10.850;2023-08-21T01:02:38;8.20;;;7.17;;
19364;SDS011;9818;48.382;10.850;2023-08-21T01:05:10;8.40;;;7.27;;
19364;SDS011;9818;48.382;10.850;2023-08-21T01:07:41;8.30;;;7.53;;
19364;SDS011;9818;48.382;10.850;2023-08-21T01:10:22;8.47;;;7.17;;
19364;SDS011;9818;48.382;10.850;2023-08-21T01:13:01;8.73;;;7.23;;
19364;SDS011;9818;48.382;10.850;2023-08-21T01:15:38;10.73;;;8.80;;
19364;SDS011;9818;48.382;10.850;2023-08-21T01:18:07;11.97;;;9.53;;
19364;SDS011;9818;48.382;10.850;2023-08-21T01:20:39;10.93;;;9.27;;
19364;SDS011;9818;48.382;10.850;2023-08-21T01:23:09;8.80;;;7.73;;
19364;SDS011;9818;48.382;10.850;2023-08-21T01:25:40;8.03;;;7.23;;
19364;SDS011;9818;48.382;10.850;2023-08-21T01:28:09;8.63;;;7.70;;
19364;SDS011;9818;48.382;10.850;2023-08-21T01:30:38;8.03;;;7.30;;
19364;SDS011;9818;48.382;10.850;2023-08-21T01:33:08;11.67;;;6.83;;
19364;SDS011;9818;48.382;10.850;2023-08-21T01:35:40;10.37;;;7.30;;
19364;SDS011;9818;48.382;10.850;2023-08-21T01:38:10;8.90;;;8.00;;
19364;SDS011;9818;48.382;10.850;2023-08-21T01:40:42;8.77;;;7.67;;
19364;SDS011;9818;48.382;10.850;2023-08-21T01:43:10;9.50;;;7.60;;
19364;SDS011;9818;48.382;10.850;2023-08-21T01:45:39;10.80;;;7.90;;
19364;SDS011;9818;48.382;10.850;2023-08-21T01:48:08;9.57;;;7.53;;
19364;SDS011;9818;48.382;10.850;2023-08-21T01:50:37;8.23;;;7.47;;
19364;SDS011;9818;48.382;10.850;2023-08-21T01:53:06;7.90;;;7.20;;
19364;SDS011;9818;48.382;10.850;2023-08-21T01:55:34;8.73;;;7.50;;
19364;SDS011;9818;48.382;10.850;2023-08-21T01:58:06;9.37;;;8.00;;
19364;SDS011;9818;48.382;10.850;2023-08-21T02:00:34;9.37;;;8.00;;
19364;SDS011;9818;48.382;10.850;2023-08-21T02:03:03;10.37;;;7.83;;
19364;SDS011;9818;48.382;10.850;2023-08-21T02:05:36;9.00;;;8.10;;
19364;SDS011;9818;48.382;10.850;2023-08-21T02:08:06;8.30;;;7.50;;
19364;SDS011;9818;48.382;10.850;2023-08-21T02:10:46;9.17;;;8.10;;
19364;SDS011;9818;48.382;10.850;2023-08-21T02:13:19;8.77;;;7.87;;
19364;SDS011;9818;48.382;10.850;2023-08-21T02:15:47;8.93;;;8.00;;
19364;SDS011;9818;48.382;10.850;2023-08-21T02:18:16;10.50;;;8.30;;
19364;SDS011;9818;48.382;10.850;2023-08-21T02:20:46;10.30;;;8.87;;
19364;SDS011;9818;48.382;10.850;2023-08-21T02:23:16;8.90;;;8.00;;
19364;SDS011;9818;48.382;10.850;2023-08-21T02:25:45;11.53;;;8.43;;
19364;SDS011;9818;48.382;10.850;2023-08-21T02:28:14;9.40;;;8.40;;
19364;SDS011;9818;48.382;10.850;2023-08-21T02:30:45;11.33;;;8.23;;
19364;SDS011;9818;48.382;10.850;2023-08-21T02:33:14;9.20;;;8.27;;
19364;SDS011;9818;48.382;10.850;2023-08-21T02:35:43;9.57;;;8.20;;
19364;SDS011;9818;48.382;10.850;2023-08-21T02:38:11;9.00;;;8.20;;
19364;SDS011;9818;48.382;10.850;2023-08-21T02:40:40;8.63;;;7.73;;
19364;SDS011;9818;48.382;10.850;2023-08-21T02:43:09;10.40;;;9.27;;
19364;SDS011;9818;48.382;10.850;2023-08-21T02:45:38;11.70;;;9.10;;
19364;SDS011;9818;48.382;10.850;2023-08-21T02:48:09;9.90;;;8.90;;
19364;SDS011;9818;48.382;10.850;2023-08-21T02:50:38;10.00;;;8.13;;
19364;SDS011;9818;48.382;10.850;2023-08-21T02:53:07;9.00;;;8.20;;
19364;SDS011;9818;48.382;10.850;2023-08-21T02:55:35;9.87;;;8.93;;
19364;SDS011;9818;48.382;10.850;2023-08-21T02:58:04;11.07;;;9.30;;
19364;SDS011;9818;48.382;10.850;2023-08-21T03:00:33;10.53;;;8.90;;
19364;SDS011;9818;48.382;10.850;2023-08-21T03:03:02;11.43;;;8.50;;
19364;SDS011;9818;48.382;10.850;2023-08-21T03:05:35;10.10;;;8.70;;
19364;SDS011;9818;48.382;10.850;2023-08-21T03:08:03;8.80;;;7.90;;
19364;SDS011;9818;48.382;10.850;2023-08-21T03:10:32;9.47;;;8.47;;
19364;SDS011;9818;48.382;10.850;2023-08-21T03:13:02;10.00;;;9.00;;
19364;SDS011;9818;48.382;10.850;2023-08-21T03:15:31;10.80;;;9.70;;
19364;SDS011;9818;48.382;10.850;2023-08-21T03:17:59;12.30;;;9.53;;
19364;SDS011;9818;48.382;10.850;2023-08-21T03:20:28;10.47;;;9.37;;
19364;SDS011;9818;48.382;10.850;2023-08-21T03:23:00;9.63;;;8.73;;
19364;SDS011;9818;48.382;10.850;2023-08-21T03:25:28;10.03;;;9.03;;
19364;SDS011;9818;48.382;10.850;2023-08-21T03:27:57;11.80;;;9.13;;
19364;SDS011;9818;48.382;10.850;2023-08-21T03:30:26;12.03;;;9.30;;
19364;SDS011;9818;48.382;10.850;2023-08-21T03:32:55;9.50;;;8.60;;
19364;SDS011;9818;48.382;10.850;2023-08-21T03:35:23;9.33;;;8.00;;
19364;SDS011;9818;48.382;10.850;2023-08-21T03:37:52;9.87;;;8.57;;
19364;SDS011;9818;48.382;10.850;2023-08-21T03:40:23;10.37;;;8.40;;
19364;SDS011;9818;48.382;10.850;2023-08-21T03:42:52;9.37;;;8.37;;
19364;SDS011;9818;48.382;10.850;2023-08-21T03:45:21;9.93;;;8.97;;
19364;SDS011;9818;48.382;10.850;2023-08-21T03:47:49;10.00;;;9.00;;
19364;SDS011;9818;48.382;10.850;2023-08-21T03:50:18;8.83;;;7.97;;
19364;SDS011;9818;48.382;10.850;2023-08-21T03:52:47;10.73;;;8.43;;
19364;SDS011;9818;48.382;10.850;2023-08-21T03:55:15;12.07;;;8.90;;
19364;SDS011;9818;48.382;10.850;2023-08-21T03:57:47;9.70;;;8.70;;
19364;SDS011;9818;48.382;10.850;2023-08-21T04:00:15;9.70;;;8.67;;
19364;SDS011;9818;48.382;10.850;2023-08-21T04:02:44;11.33;;;9.30;;
19364;SDS011;9818;48.382;10.850;2023-08-21T04:05:13;9.20;;;8.30;;
19364;SDS011;9818;48.382;10.850;2023-08-21T04:07:42;10.27;;;8.93;;
19364;SDS011;9818;48.382;10.850;2023-08-21T04:10:11;10.30;;;9.03;;
19364;SDS011;9818;48.382;10.850;2023-08-21T04:12:41;11.67;;;8.73;;
19364;SDS011;9818;48.382;10.850;2023-08-21T04:15:12;11.07;;;9.03;;
19364;SDS011;9818;48.382;10.850;2023-08-21T04:17:41;10.87;;;9.30;;
19364;SDS011;9818;48.382;10.850;2023-08-21T04:20:10;10.43;;;8.80;;
19364;SDS011;9818;48.382;10.850;2023-08-21T04:22:39;10.73;;;8.93;;
19364;SDS011;9818;48.382;10.850;2023-08-21T04:25:08;9.23;;;8.30;;
19364;SDS011;9818;48.382;10.850;2023-08-21T04:27:37;10.17;;;9.17;;
19364;SDS011;9818;48.382;10.850;2023-08-21T04:30:06;11.50;;;9.17;;
19364;SDS011;9818;48.382;10.850;2023-08-21T04:32:38;10.00;;;8.93;;
19364;SDS011;9818;48.382;10.850;2023-08-21T04:35:07;14.13;;;9.80;;
19364;SDS011;9818;48.382;10.850;2023-08-21T04:37:37;12.50;;;9.70;;
19364;SDS011;9818;48.382;10.850;2023-08-21T04:40:10;12.63;;;8.63;;
19364;SDS011;9818;48.382;10.850;2023-08-21T04:42:40;13.93;;;10.00;;
19364;SDS011;9818;48.382;10.850;2023-08-21T04:45:09;13.80;;;9.90;;
19364;SDS011;9818;48.382;10.850;2023-08-21T04:47:40;10.83;;;9.60;;
19364;SDS011;9818;48.382;10.850;2023-08-21T04:50:09;14.13;;;10.10;;
19364;SDS011;9818;48.382;10.850;2023-08-21T04:52:38;13.50;;;10.23;;
19364;SDS011;9818;48.382;10.850;2023-08-21T04:55:07;12.80;;;10.93;;
19364;SDS011;9818;48.382;10.850;2023-08-21T04:57:36;13.43;;;11.00;;
19364;SDS011;9818;48.382;10.850;2023-08-21T05:00:05;12.83;;;11.50;;
19364;SDS011;9818;48.382;10.850;2023-08-21T05:02:35;11.30;;;9.73;;
19364;SDS011;9818;48.382;10.850;2023-08-21T05:05:07;11.77;;;10.47;;
19364;SDS011;9818;48.382;10.850;2023-08-21T05:07:36;12.40;;;9.93;;
19364;SDS011;9818;48.382;10.850;2023-08-21T05:10:05;13.30;;;10.53;;
19364;SDS011;9818;48.382;10.850;2023-08-21T05:12:35;15.37;;;12.80;;
19364;SDS011;9818;48.382;10.850;2023-08-21T05:15:04;16.07;;;11.63;;
19364;SDS011;9818;48.382;10.850;2023-08-21T05:17:34;13.80;;;11.90;;
19364;SDS011;9818;48.382;10.850;2023-08-21T05:20:03;14.33;;;12.30;;
19364;SDS011;9818;48.382;10.850;2023-08-21T05:22:39;13.67;;;10.70;;
19364;SDS011;9818;48.382;10.850;2023-08-21T05:25:08;15.57;;;10.80;;
19364;SDS011;9818;48.382;10.850;2023-08-21T05:27:38;13.23;;;11.57;;
19364;SDS011;9818;48.382;10.850;2023-08-21T05:30:07;14.83;;;10.97;;
19364;SDS011;9818;48.382;10.850;2023-08-21T05:32:38;14.37;;;11.23;;
19364;SDS011;9818;48.382;10.850;2023-08-21T05:35:10;15.37;;;12.53;;
19364;SDS011;9818;48.382;10.850;2023-08-21T05:37:38;14.27;;;10.50;;
19364;SDS011;9818;48.382;10.850;2023-08-21T05:40:07;13.47;;;10.87;;
19364;SDS011;9818;48.382;10.850;2023-08-21T05:42:37;16.90;;;12.80;;
19364;SDS011;9818;48.382;10.850;2023-08-21T05:45:06;14.40;;;11.43;;
19364;SDS011;9818;48.382;10.850;2023-08-21T05:47:35;17.63;;;12.97;;
19364;SDS011;9818;48.382;10.850;2023-08-21T05:50:04;12.43;;;11.13;;
19364;SDS011;9818;48.382;10.850;2023-08-21T05:52:39;20.30;;;13.60;;
19364;SDS011;9818;48.382;10.850;2023-08-21T05:55:08;17.23;;;11.50;;
19364;SDS011;9818;48.382;10.850;2023-08-21T05:57:37;12.93;;;10.40;;
19364;SDS011;9818;48.382;10.850;2023-08-21T06:00:06;15.73;;;10.53;;
19364;SDS011;9818;48.382;10.850;2023-08-21T06:02:36;14.43;;;10.70;;
19364;SDS011;9818;48.382;10.850;2023-08-21T06:05:04;13.30;;;10.20;;
19364;SDS011;9818;48.382;10.850;2023-08-21T06:07:34;12.60;;;9.50;;
19364;SDS011;9818;48.382;10.850;2023-08-21T06:10:06;14.00;;;10.93;;
19364;SDS011;9818;48.382;10.850;2023-08-21T06:12:36;12.27;;;10.30;;
19364;SDS011;9818;48.382;10.850;2023-08-21T06:15:06;16.43;;;11.73;;
19364;SDS011;9818;48.382;10.850;2023-08-21T06:17:37;13.43;;;10.57;;
19364;SDS011;9818;48.382;10.850;2023-08-21T06:20:07;14.30;;;12.33;;
19364;SDS011;9818;48.382;10.850;2023-08-21T06:22:39;19.80;;;11.47;;
19364;SDS011;9818;48.382;10.850;2023-08-21T06:25:10;13.90;;;11.90;;
19364;SDS011;9818;48.382;10.850;2023-08-21T06:27:39;13.37;;;11.97;;
19364;SDS011;9818;48.382;10.850;2023-08-21T06:30:08;16.93;;;10.60;;
19364;SDS011;9818;48.382;10.850;2023-08-21T06:32:38;12.23;;;10.67;;
19364;SDS011;9818;48.382;10.850;2023-08-21T06:35:07;14.80;;;10.67;;
19364;SDS011;9818;48.382;10.850;2023-08-21T06:37:36;16.27;;;10.40;;
19364;SDS011;9818;48.382;10.850;2023-08-21T06:40:06;12.57;;;10.80;;
19364;SDS011;9818;48.382;10.850;2023-08-21T06:42:39;13.40;;;10.50;;
19364;SDS011;9818;48.382;10.850;2023-08-21T06:45:08;10.97;;;8.90;;
19364;SDS011;9818;48.382;10.850;2023-08-21T06:47:37;10.97;;;9.33;;
19364;SDS011;9818;48.382;10.850;2023-08-21T06:50:06;11.57;;;9.80;;
19364;SDS011;9818;48.382;10.850;2023-08-21T06:52:35;13.55;;;8.65;;
19364;SDS011;9818;48.382;10.850;2023-08-21T06:55:04;11.07;;;9.03;;
19364;SDS011;9818;48.382;10.850;2023-08-21T06:57:33;12.97;;;10.00;;
19364;SDS011;9818;48.382;10.850;2023-08-21T07:00:06;12.95;;;9.23;;
19364;SDS011;9818;48.382;10.850;2023-08-21T07:02:35;12.82;;;9.07;;
19364;SDS011;9818;48.382;10.850;2023-08-21T07:05:04;12.57;;;8.85;;
19364;SDS011;9818;48.382;10.850;2023-08-21T07:07:33;11.13;;;9.00;;
19364;SDS011;9818;48.382;10.850;2023-08-21T07:10:02;10.63;;;8.63;;
19364;SDS011;9818;48.382;10.850;2023-08-21T07:12:31;9.98;;;8.55;;
19364;SDS011;9818;48.382;10.850;2023-08-21T07:14:59;11.15;;;9.48;;
19364;SDS011;9818;48.382;10.850;2023-08-21T07:17:31;11.88;;;8.38;;
19364;SDS011;9818;48.382;10.850;2023-08-21T07:20:00;9.77;;;8.57;;
19364;SDS011;9818;48.382;10.850;2023-08-21T07:22:29;14.45;;;9.98;;
19364;SDS011;9818;48.382;10.850;2023-08-21T07:24:58;10.50;;;8.98;;
19364;SDS011;9818;48.382;10.850;2023-08-21T07:27:29;10.63;;;9.45;;
19364;SDS011;9818;48.382;10.850;2023-08-21T07:29:58;11.20;;;7.57;;
19364;SDS011;9818;48.382;10.850;2023-08-21T07:32:26;12.13;;;9.52;;
19364;SDS011;9818;48.382;10.850;2023-08-21T07:34:58;9.45;;;8.50;;
19364;SDS011;9818;48.382;10.850;2023-08-21T07:37:26;10.13;;;8.98;;
19364;SDS011;9818;48.382;10.850;2023-08-21T07:39:56;9.65;;;8.25;;
19364;SDS011;9818;48.382;10.850;2023-08-21T07:42:24;11.85;;;8.13;;
19364;SDS011;9818;48.382;10.850;2023-08-21T07:44:53;9.38;;;8.45;;
19364;SDS011;9818;48.382;10.850;2023-08-21T07:47:22;8.85;;;7.90;;
19364;SDS011;9818;48.382;10.850;2023-08-21T07:49:51;10.70;;;8.13;;
19364;SDS011;9818;48.382;10.850;2023-08-21T07:52:22;10.57;;;8.82;;
19364;SDS011;9818;48.382;10.850;2023-08-21T07:54:51;10.75;;;8.57;;
19364;SDS011;9818;48.382;10.850;2023-08-21T07:57:20;10.27;;;8.20;;
19364;SDS011;9818;48.382;10.850;2023-08-21T07:59:48;8.80;;;7.90;;
19364;SDS011;9818;48.382;10.850;2023-08-21T08:02:17;10.00;;;9.00;;
19364;SDS011;9818;48.382;10.850;2023-08-21T08:04:46;11.55;;;8.27;;
19364;SDS011;9818;48.382;10.850;2023-08-21T08:07:15;9.30;;;8.02;;
19364;SDS011;9818;48.382;10.850;2023-08-21T08:09:46;10.38;;;8.40;;
19364;SDS011;9818;48.382;10.850;2023-08-21T08:12:16;9.00;;;8.10;;
19364;SDS011;9818;48.382;10.850;2023-08-21T08:14:45;8.57;;;7.78;;
19364;SDS011;9818;48.382;10.850;2023-08-21T08:17:14;9.93;;;8.40;;
19364;SDS011;9818;48.382;10.850;2023-08-21T08:19:43;9.38;;;8.10;;
19364;SDS011;9818;48.382;10.850;2023-08-21T08:22:11;8.98;;;8.10;;
19364;SDS011;9818;48.382;10.850;2023-08-21T08:24:40;10.45;;;8.10;;
19364;SDS011;9818;48.382;10.850;2023-08-21T08:27:11;10.25;;;9.25;;
19364;SDS011;9818;48.382;10.850;2023-08-21T08:29:40;12.13;;;8.85;;
19364;SDS011;9818;48.382;10.850;2023-08-21T08:32:09;9.73;;;8.73;;
19364;SDS011;9818;48.382;10.850;2023-08-21T08:34:38;8.23;;;7.38;;
19364;SDS011;9818;48.382;10.850;2023-08-21T08:37:06;9.00;;;8.10;;
19364;SDS011;9818;48.382;10.850;2023-08-21T08:39:35;9.82;;;7.93;;
19364;SDS011;9818;48.382;10.850;2023-08-21T08:42:05;10.45;;;8.18;;
19364;SDS011;9818;48.382;10.850;2023-08-21T08:44:37;9.90;;;8.48;;
19364;SDS011;9818;48.382;10.850;2023-08-21T08:47:06;10.10;;;7.85;;
19364;SDS011;9818;48.382;10.850;2023-08-21T08:49:35;8.55;;;7.25;;
19364;SDS011;9818;48.382;10.850;2023-08-21T08:52:04;8.10;;;7.22;;
19364;SDS011;9818;48.382;10.850;2023-08-21T08:54:33;10.15;;;8.05;;
19364;SDS011;9818;48.382;10.850;2023-08-21T08:57:03;9.25;;;8.35;;
19364;SDS011;9818;48.382;10.850;2023-08-21T08:59:32;9.77;;;8.63;;
19364;SDS011;9818;48.382;10.850;2023-08-21T09:02:04;10.18;;;8.73;;
19364;SDS011;9818;48.382;10.850;2023-08-21T09:04:32;9.95;;;8.02;;
19364;SDS011;9818;48.382;10.850;2023-08-21T09:07:07;11.80;;;8.25;;
19364;SDS011;9818;48.382;10.850;2023-08-21T09:09:39;9.13;;;8.02;;
19364;SDS011;9818;48.382;10.850;2023-08-21T09:12:09;9.57;;;8.68;;
19364;SDS011;9818;48.382;10.850;2023-08-21T09:14:39;13.70;;;8.48;;
19364;SDS011;9818;48.382;10.850;2023-08-21T09:17:11;10.77;;;8.90;;
19364;SDS011;9818;48.382;10.850;2023-08-21T09:19:40;9.07;;;8.18;;
19364;SDS011;9818;48.382;10.850;2023-08-21T09:22:09;9.90;;;8.20;;
19364;SDS011;9818;48.382;10.850;2023-08-21T09:24:39;8.13;;;7.32;;
19364;SDS011;9818;48.382;10.850;2023-08-21T09:27:12;8.75;;;7.85;;
19364;SDS011;9818;48.382;10.850;2023-08-21T09:29:43;9.23;;;8.15;;
19364;SDS011;9818;48.382;10.850;2023-08-21T09:32:16;12.32;;;8.90;;
19364;SDS011;9818;48.382;10.850;2023-08-21T09:34:45;8.80;;;7.90;;
19364;SDS011;9818;48.382;10.850;2023-08-21T09:37:16;8.25;;;7.45;;
19364;SDS011;9818;48.382;10.850;2023-08-21T09:39:45;11.38;;;7.88;;
19364;SDS011;9818;48.382;10.850;2023-08-21T09:42:16;12.38;;;8.88;;
19364;SDS011;9818;48.382;10.850;2023-08-21T09:44:49;9.10;;;8.18;;
19364;SDS011;9818;48.382;10.850;2023-08-21T09:47:22;10.88;;;8.85;;
19364;SDS011;9818;48.382;10.850;2023-08-21T09:49:53;10.43;;;9.35;;
19364;SDS011;9818;48.382;10.850;2023-08-21T09:52:22;10.77;;;8.55;;
19364;SDS011;9818;48.382;10.850;2023-08-21T09:54:52;9.65;;;8.65;;
19364;SDS011;9818;48.382;10.850;2023-08-21T09:57:23;9.48;;;8.57;;
19364;SDS011;9818;48.382;10.850;2023-08-21T09:59:52;9.30;;;8.35;;
19364;SDS011;9818;48.382;10.850;2023-08-21T10:02:24;8.98;;;8.18;;
19364;SDS011;9818;48.382;10.850;2023-08-21T10:04:54;8.75;;;7.88;;
19364;SDS011;9818;48.382;10.850;2023-08-21T10:07:24;8.85;;;8.05;;
19364;SDS011;9818;48.382;10.850;2023-08-21T10:09:56;9.82;;;8.05;;
19364;SDS011;9818;48.382;10.850;2023-08-21T10:12:25;9.23;;;8.32;;
19364;SDS011;9818;48.382;10.850;2023-08-21T10:14:55;10.02;;;7.95;;
19364;SDS011;9818;48.382;10.850;2023-08-21T10:17:26;9.23;;;8.40;;
19364;SDS011;9818;48.382;10.850;2023-08-21T10:19:58;9.38;;;8.48;;
19364;SDS011;9818;48.382;10.850;2023-08-21T10:22:38;8.30;;;7.40;;
19364;SDS011;9818;48.382;10.850;2023-08-21T10:25:15;8.95;;;8.15;;
19364;SDS011;9818;48.382;10.850;2023-08-21T10:27:48;10.45;;;7.38;;
19364;SDS011;9818;48.382;10.850;2023-08-21T10:30:22;8.45;;;6.80;;
19364;SDS011;9818;48.382;10.850;2023-08-21T10:32:54;9.10;;;6.95;;
19364;SDS011;9818;48.382;10.850;2023-08-21T10:35:30;7.32;;;6.63;;
19364;SDS011;9818;48.382;10.850;2023-08-21T10:38:06;9.90;;;6.93;;
19364;SDS011;9818;48.382;10.850;2023-08-21T10:40:36;7.55;;;6.68;;
19364;SDS011;9818;48.382;10.850;2023-08-21T10:46:05;7.85;;;6.57;;
19364;SDS011;9818;48.382;10.850;2023-08-21T10:48:36;7.35;;;6.38;;
19364;SDS011;9818;48.382;10.850;2023-08-21T10:51:06;7.50;;;6.70;;
19364;SDS011;9818;48.382;10.850;2023-08-21T10:53:38;8.18;;;7.32;;
19364;SDS011;9818;48.382;10.850;2023-08-21T10:56:08;8.60;;;7.20;;
19364;SDS011;9818;48.382;10.850;2023-08-21T10:58:38;7.57;;;6.43;;
19364;SDS011;9818;48.382;10.850;2023-08-21T11:01:08;7.70;;;6.30;;
19364;SDS011;9818;48.382;10.850;2023-08-21T11:03:40;7.93;;;6.95;;
19364;SDS011;9818;48.382;10.850;2023-08-21T11:06:13;6.78;;;6.10;;
19364;SDS011;9818;48.382;10.850;2023-08-21T11:08:42;7.20;;;6.38;;
19364;SDS011;9818;48.382;10.850;2023-08-21T11:11:11;7.30;;;6.60;;
19364;SDS011;9818;48.382;10.850;2023-08-21T11:13:39;7.63;;;6.95;;
19364;SDS011;9818;48.382;10.850;2023-08-21T11:16:08;7.20;;;6.13;;
19364;SDS011;9818;48.382;10.850;2023-08-21T11:18:37;13.32;;;7.88;;
19364;SDS011;9818;48.382;10.850;2023-08-21T11:21:10;8.63;;;6.88;;
19364;SDS011;9818;48.382;10.850;2023-08-21T11:23:40;9.30;;;7.70;;
19364;SDS011;9818;48.382;10.850;2023-08-21T11:26:10;9.43;;;7.22;;
19364;SDS011;9818;48.382;10.850;2023-08-21T11:28:39;7.55;;;6.82;;
19364;SDS011;9818;48.382;10.850;2023-08-21T11:31:08;6.90;;;6.20;;
19364;SDS011;9818;48.382;10.850;2023-08-21T11:33:38;8.13;;;7.10;;
19364;SDS011;9818;48.382;10.850;2023-08-21T11:36:06;6.97;;;6.28;;
19364;SDS011;9818;48.382;10.850;2023-08-21T11:38:38;7.45;;;6.75;;
19364;SDS011;9818;48.382;10.850;2023-08-21T11:41:06;8.32;;;6.07;;
19364;SDS011;9818;48.382;10.850;2023-08-21T11:43:35;6.90;;;6.30;;
19364;SDS011;9818;48.382;10.850;2023-08-21T11:46:05;10.50;;;6.63;;
19364;SDS011;9818;48.382;10.850;2023-08-21T11:48:36;6.90;;;6.20;;
19364;SDS011;9818;48.382;10.850;2023-08-21T11:51:06;9.63;;;6.80;;
19364;SDS011;9818;48.382;10.850;2023-08-21T11:53:38;8.07;;;6.05;;
19364;SDS011;9818;48.382;10.850;2023-08-21T11:56:12;6.53;;;5.93;;
19364;SDS011;9818;48.382;10.850;2023-08-21T11:58:42;7.18;;;5.97;;
19364;SDS011;9818;48.382;10.850;2023-08-21T12:01:17;10.55;;;6.28;;
19364;SDS011;9818;48.382;10.850;2023-08-21T12:03:46;6.20;;;5.60;;
19364;SDS011;9818;48.382;10.850;2023-08-21T12:06:19;6.93;;;5.40;;
19364;SDS011;9818;48.382;10.850;2023-08-21T12:08:53;9.55;;;5.57;;
19364;SDS011;9818;48.382;10.850;2023-08-21T12:11:22;9.38;;;6.03;;
19364;SDS011;9818;48.382;10.850;2023-08-21T12:13:50;8.13;;;6.07;;
19364;SDS011;9818;48.382;10.850;2023-08-21T12:16:19;6.85;;;5.72;;
19364;SDS011;9818;48.382;10.850;2023-08-21T12:18:48;9.45;;;6.05;;
19364;SDS011;9818;48.382;10.850;2023-08-21T12:21:17;8.43;;;5.93;;
19364;SDS011;9818;48.382;10.850;2023-08-21T12:23:46;8.95;;;7.13;;
19364;SDS011;9818;48.382;10.850;2023-08-21T12:26:17;8.57;;;6.25;;
19364;SDS011;9818;48.382;10.850;2023-08-21T12:28:46;7.13;;;6.32;;
19364;SDS011;9818;48.382;10.850;2023-08-21T12:31:15;8.73;;;6.70;;
19364;SDS011;9818;48.382;10.850;2023-08-21T12:33:44;8.13;;;6.03;;
19364;SDS011;9818;48.382;10.850;2023-08-21T12:36:12;9.80;;;6.07;;
19364;SDS011;9818;48.382;10.850;2023-08-21T12:38:41;10.02;;;6.20;;
19364;SDS011;9818;48.382;10.850;2023-08-21T12:41:10;8.80;;;6.22;;
19364;SDS011;9818;48.382;10.850;2023-08-21T12:43:41;7.18;;;5.55;;
19364;SDS011;9818;48.382;10.850;2023-08-21T12:46:10;6.75;;;5.55;;
19364;SDS011;9818;48.382;10.850;2023-08-21T12:48:39;6.38;;;5.57;;
19364;SDS011;9818;48.382;10.850;2023-08-21T12:51:07;7.88;;;6.57;;
19364;SDS011;9818;48.382;10.850;2023-08-21T12:53:36;6.30;;;5.70;;
19364;SDS011;9818;48.382;10.850;2023-08-21T12:56:05;9.52;;;6.40;;
19364;SDS011;9818;48.382;10.850;2023-08-21T12:58:34;7.53;;;5.93;;
19364;SDS011;9818;48.382;10.850;2023-08-21T13:01:05;6.40;;;5.68;;
19364;SDS011;9818;48.382;10.850;2023-08-21T13:03:34;7.05;;;6.40;;
19364;SDS011;9818;48.382;10.850;2023-08-21T13:06:03;7.50;;;6.05;;
19364;SDS011;9818;48.382;10.850;2023-08-21T13:08:32;7.47;;;5.75;;
19364;SDS011;9818;48.382;10.850;2023-08-21T13:11:00;7.50;;;6.13;;
19364;SDS011;9818;48.382;10.850;2023-08-21T13:13:30;8.13;;;6.30;;
19364;SDS011;9818;48.382;10.850;2023-08-21T13:15:59;7.93;;;6.28;;
19364;SDS011;9818;48.382;10.850;2023-08-21T13:18:31;8.45;;;6.45;;
19364;SDS011;9818;48.382;10.850;2023-08-21T13:21:00;7.78;;;5.85;;
19364;SDS011;9818;48.382;10.850;2023-08-21T13:23:29;7.63;;;6.25;;
19364;SDS011;9818;48.382;10.850;2023-08-21T13:25:59;7.38;;;5.70;;
19364;SDS011;9818;48.382;10.850;2023-08-21T13:28:28;6.97;;;6.30;;
19364;SDS011;9818;48.382;10.850;2023-08-21T13:30:59;6.80;;;6.10;;
19364;SDS011;9818;48.382;10.850;2023-08-21T13:33:30;7.95;;;6.82;;
19364;SDS011;9818;48.382;10.850;2023-08-21T13:35:59;7.93;;;6.35;;
19364;SDS011;9818;48.382;10.850;2023-08-21T13:38:28;6.57;;;5.38;;
19364;SDS011;9818;48.382;10.850;2023-08-21T13:40:57;8.57;;;6.80;;
19364;SDS011;9818;48.382;10.850;2023-08-21T13:43:26;9.10;;;6.95;;
19364;SDS011;9818;48.382;10.850;2023-08-21T13:45:54;7.13;;;6.43;;
19364;SDS011;9818;48.382;10.850;2023-08-21T13:48:23;8.18;;;6.50;;
19364;SDS011;9818;48.382;10.850;2023-08-21T13:50:54;6.90;;;6.30;;
19364;SDS011;9818;48.382;10.850;2023-08-21T13:53:23;8.65;;;7.63;;
19364;SDS011;9818;48.382;10.850;2023-08-21T13:55:52;7.38;;;6.40;;
19364;SDS011;9818;48.382;10.850;2023-08-21T13:58:21;7.85;;;7.05;;
19364;SDS011;9818;48.382;10.850;2023-08-21T14:00:49;8.38;;;6.63;;
19364;SDS011;9818;48.382;10.850;2023-08-21T14:03:18;6.80;;;6.15;;
19364;SDS011;9818;48.382;10.850;2023-08-21T14:05:47;8.02;;;7.15;;
19364;SDS011;9818;48.382;10.850;2023-08-21T14:08:18;9.98;;;7.20;;
19364;SDS011;9818;48.382;10.850;2023-08-21T14:10:47;7.90;;;7.05;;
19364;SDS011;9818;48.382;10.850;2023-08-21T14:13:15;8.32;;;6.35;;
19364;SDS011;9818;48.382;10.850;2023-08-21T14:15:44;7.95;;;6.32;;
19364;SDS011;9818;48.382;10.850;2023-08-21T14:18:13;8.75;;;6.85;;
19364;SDS011;9818;48.382;10.850;2023-08-21T14:20:41;9.18;;;6.68;;
19364;SDS011;9818;48.382;10.850;2023-08-21T14:23:10;7.78;;;6.97;;
19364;SDS011;9818;48.382;10.850;2023-08-21T14:25:42;8.40;;;6.38;;
19364;SDS011;9818;48.382;10.850;2023-08-21T14:28:10;6.88;;;6.18;;
19364;SDS011;9818;48.382;10.850;2023-08-21T14:30:39;7.53;;;6.82;;
19364;SDS011;9818;48.382;10.850;2023-08-21T14:33:08;13.15;;;6.70;;
19364;SDS011;9818;48.382;10.850;2023-08-21T14:35:37;7.93;;;6.32;;
19364;SDS011;9818;48.382;10.850;2023-08-21T14:38:05;8.55;;;6.15;;
19364;SDS011;9818;48.382;10.850;2023-08-21T14:40:34;6.60;;;6.00;;
19364;SDS011;9818;48.382;10.850;2023-08-21T14:43:05;9.45;;;6.80;;
19364;SDS011;9818;48.382;10.850;2023-08-21T14:45:34;7.97;;;6.30;;
19364;SDS011;9818;48.382;10.850;2023-08-21T14:48:03;6.88;;;6.18;;
19364;SDS011;9818;48.382;10.850;2023-08-21T14:50:32;7.40;;;5.60;;
19364;SDS011;9818;48.382;10.850;2023-08-21T14:53:01;8.20;;;5.75;;
19364;SDS011;9818;48.382;10.850;2023-08-21T14:55:30;5.88;;;5.32;;
19364;SDS011;9818;48.382;10.850;2023-08-21T14:57:58;6.50;;;5.30;;